Aérodrome :
LOGIN :

S'inscrire | Disclaimer

   EN    FR    IT 

 










Légende :    VFR   VFR Marginal   IFR   IFR Intensif   IFR Très Intensif
Visi : 
Plafond : 
>= 8 km
>= 3000ft
5 à 8 km
1000 à 3000 ft
1500m à 5 km
500 à 1000 ft
800 à 1500m
200 à 500 ft
< 800m
< 200 ft
Symboles :   Orages  Brouillard  Fortes neiges  Fortes précipitations  Vent > 20 kt
SIGMETs :   Divers  Orages  Givrage  Turbulence  Onde Orograph.  Cendres Volcan.






- Altitude de l'aérodrome : 1416 ft
- Code IATA : ZRH


LSZH - Zurich

DERNIER METAR :
  • 230120Z 34005KT CAVOK 02/00 Q0999 NOSIG

METARs EXPIRÉS :
  • 230050Z 36005KT CAVOK 03/01 Q0999 NOSIG
  • 222350Z 35006KT 310V030 8000 FEW008 03/01 Q1000 NOSIG
  • 222320Z 36004KT 340V040 8000 SCT008 03/01 Q1000 NOSIG
  • 222250Z 01006KT 8000 SCT007 03/01 Q1001 NOSIG

TAF TAF LSZH
Valide du 23 à 00h jusqu'au 24 à 06h UTC


222325Z 2300/2406 01006KT 8000 SCT007 TX09/2314Z TN01/2306Z TN02/2406Z
TEMPO 2302/2310 05007KT
BECMG 2307/2310 CAVOK
BECMG 2310/2312 06010KT
BECMG 2314/2316 VRB03KT
BECMG 2321/2324 8000 NSC
PROB40 2403/2406 4000 BR
ATIS : +41 43 816 2295 (DEP) +41 43 816 2294 (ARR)



MET'MAP, la Météo Aéronautique d'un coup d'oeil ! - Copyright ORBIFLY Décembre 2007 - Disclaimer

ORBIFLY MET'MAP TEAM :

Programmation & Développement : Alexandra Zaïnal
Conception & Développement : Baudouin d'Aumeries
Co-Programmation & Développement : Marc-Olivier Méhu
Soutien technique & logistique : Manuel Goepfert

Contact : metmap@orbifly.com




SOURCES & CREDITS :

   NOAA